sensor_id;sensor_type;location;lat;lon;timestamp;P1;durP1;ratioP1;P2;durP2;ratioP2
61356;SDS011;47227;46.752;23.576;2022-12-18T00:01:24;42.80;;;22.70;;
61356;SDS011;47227;46.752;23.576;2022-12-18T00:03:54;40.20;;;21.60;;
61356;SDS011;47227;46.752;23.576;2022-12-18T00:06:24;39.90;;;22.10;;
61356;SDS011;47227;46.752;23.576;2022-12-18T00:08:55;45.40;;;21.70;;
61356;SDS011;47227;46.752;23.576;2022-12-18T00:11:25;49.40;;;22.90;;
61356;SDS011;47227;46.752;23.576;2022-12-18T00:13:55;48.60;;;23.80;;
61356;SDS011;47227;46.752;23.576;2022-12-18T00:16:25;42.50;;;22.60;;
61356;SDS011;47227;46.752;23.576;2022-12-18T00:18:56;54.30;;;23.90;;
61356;SDS011;47227;46.752;23.576;2022-12-18T00:21:24;43.80;;;21.90;;
61356;SDS011;47227;46.752;23.576;2022-12-18T00:23:54;44.70;;;23.10;;
61356;SDS011;47227;46.752;23.576;2022-12-18T00:26:24;44.10;;;23.40;;
61356;SDS011;47227;46.752;23.576;2022-12-18T00:28:58;50.00;;;24.10;;
61356;SDS011;47227;46.752;23.576;2022-12-18T00:31:30;48.70;;;25.00;;
61356;SDS011;47227;46.752;23.576;2022-12-18T00:33:59;48.50;;;24.60;;
61356;SDS011;47227;46.752;23.576;2022-12-18T00:36:29;50.30;;;25.00;;
61356;SDS011;47227;46.752;23.576;2022-12-18T00:39:02;50.00;;;24.90;;
61356;SDS011;47227;46.752;23.576;2022-12-18T00:41:32;48.70;;;24.20;;
61356;SDS011;47227;46.752;23.576;2022-12-18T00:44:19;54.20;;;25.70;;
61356;SDS011;47227;46.752;23.576;2022-12-18T00:46:47;46.10;;;22.80;;
61356;SDS011;47227;46.752;23.576;2022-12-18T00:49:17;45.90;;;22.60;;
61356;SDS011;47227;46.752;23.576;2022-12-18T00:51:47;45.80;;;20.60;;
61356;SDS011;47227;46.752;23.576;2022-12-18T00:54:15;42.20;;;20.30;;
61356;SDS011;47227;46.752;23.576;2022-12-18T00:56:44;44.80;;;21.20;;
61356;SDS011;47227;46.752;23.576;2022-12-18T00:59:17;41.90;;;20.90;;
61356;SDS011;47227;46.752;23.576;2022-12-18T01:01:45;41.00;;;20.00;;
61356;SDS011;47227;46.752;23.576;2022-12-18T01:04:14;45.00;;;21.20;;
61356;SDS011;47227;46.752;23.576;2022-12-18T01:06:45;40.30;;;19.30;;
61356;SDS011;47227;46.752;23.576;2022-12-18T01:09:13;46.30;;;21.10;;
61356;SDS011;47227;46.752;23.576;2022-12-18T01:11:41;45.50;;;22.20;;
61356;SDS011;47227;46.752;23.576;2022-12-18T01:14:09;46.60;;;22.30;;
61356;SDS011;47227;46.752;23.576;2022-12-18T01:16:38;46.80;;;23.00;;
61356;SDS011;47227;46.752;23.576;2022-12-18T01:19:06;46.30;;;22.90;;
61356;SDS011;47227;46.752;23.576;2022-12-18T01:21:34;46.80;;;24.00;;
61356;SDS011;47227;46.752;23.576;2022-12-18T01:24:04;47.80;;;23.70;;
61356;SDS011;47227;46.752;23.576;2022-12-18T01:26:32;50.10;;;23.90;;
61356;SDS011;47227;46.752;23.576;2022-12-18T01:29:00;49.40;;;23.60;;
61356;SDS011;47227;46.752;23.576;2022-12-18T01:31:30;46.80;;;23.50;;
61356;SDS011;47227;46.752;23.576;2022-12-18T01:34:02;49.60;;;22.60;;
61356;SDS011;47227;46.752;23.576;2022-12-18T01:36:33;49.20;;;23.80;;
61356;SDS011;47227;46.752;23.576;2022-12-18T01:39:04;47.90;;;22.30;;
61356;SDS011;47227;46.752;23.576;2022-12-18T01:41:34;48.00;;;21.80;;
61356;SDS011;47227;46.752;23.576;2022-12-18T01:50:14;36.10;;;19.50;;
61356;SDS011;47227;46.752;23.576;2022-12-18T01:52:46;41.50;;;20.80;;
61356;SDS011;47227;46.752;23.576;2022-12-18T01:55:16;37.70;;;19.80;;
61356;SDS011;47227;46.752;23.576;2022-12-18T01:57:47;41.50;;;20.90;;
61356;SDS011;47227;46.752;23.576;2022-12-18T02:00:20;38.90;;;20.60;;
61356;SDS011;47227;46.752;23.576;2022-12-18T02:02:50;42.20;;;21.10;;
61356;SDS011;47227;46.752;23.576;2022-12-18T02:05:25;40.90;;;21.40;;
61356;SDS011;47227;46.752;23.576;2022-12-18T02:08:04;44.40;;;22.70;;
61356;SDS011;47227;46.752;23.576;2022-12-18T02:13:34;43.30;;;21.20;;
61356;SDS011;47227;46.752;23.576;2022-12-18T02:16:15;43.10;;;21.10;;
61356;SDS011;47227;46.752;23.576;2022-12-18T02:19:09;46.20;;;22.40;;
61356;SDS011;47227;46.752;23.576;2022-12-18T02:24:59;41.70;;;20.60;;
61356;SDS011;47227;46.752;23.576;2022-12-18T02:27:41;43.00;;;20.40;;
61356;SDS011;47227;46.752;23.576;2022-12-18T02:30:14;44.70;;;20.70;;
61356;SDS011;47227;46.752;23.576;2022-12-18T02:32:45;41.80;;;20.90;;
61356;SDS011;47227;46.752;23.576;2022-12-18T02:35:19;44.40;;;21.90;;
61356;SDS011;47227;46.752;23.576;2022-12-18T02:37:52;44.50;;;22.10;;
61356;SDS011;47227;46.752;23.576;2022-12-18T02:40:23;48.90;;;23.00;;
61356;SDS011;47227;46.752;23.576;2022-12-18T02:42:54;55.10;;;25.00;;
61356;SDS011;47227;46.752;23.576;2022-12-18T02:45:23;51.20;;;23.60;;
61356;SDS011;47227;46.752;23.576;2022-12-18T02:47:52;50.50;;;23.00;;
61356;SDS011;47227;46.752;23.576;2022-12-18T02:50:36;47.80;;;21.30;;
61356;SDS011;47227;46.752;23.576;2022-12-18T02:53:15;42.80;;;21.40;;
61356;SDS011;47227;46.752;23.576;2022-12-18T02:55:54;43.90;;;20.70;;
61356;SDS011;47227;46.752;23.576;2022-12-18T02:58:40;42.20;;;20.00;;
61356;SDS011;47227;46.752;23.576;2022-12-18T03:01:32;43.90;;;19.60;;
61356;SDS011;47227;46.752;23.576;2022-12-18T03:04:12;42.60;;;18.60;;
61356;SDS011;47227;46.752;23.576;2022-12-18T03:06:47;41.50;;;18.30;;
61356;SDS011;47227;46.752;23.576;2022-12-18T03:09:19;38.60;;;18.50;;
61356;SDS011;47227;46.752;23.576;2022-12-18T03:11:54;37.30;;;18.50;;
61356;SDS011;47227;46.752;23.576;2022-12-18T03:14:38;39.40;;;19.20;;
61356;SDS011;47227;46.752;23.576;2022-12-18T03:17:09;38.70;;;19.30;;
61356;SDS011;47227;46.752;23.576;2022-12-18T03:19:41;38.60;;;19.60;;
61356;SDS011;47227;46.752;23.576;2022-12-18T03:22:10;37.10;;;19.40;;
61356;SDS011;47227;46.752;23.576;2022-12-18T03:24:44;36.00;;;19.00;;
61356;SDS011;47227;46.752;23.576;2022-12-18T03:27:14;38.90;;;20.10;;
61356;SDS011;47227;46.752;23.576;2022-12-18T03:29:46;44.40;;;21.70;;
61356;SDS011;47227;46.752;23.576;2022-12-18T03:32:24;43.80;;;22.30;;
61356;SDS011;47227;46.752;23.576;2022-12-18T03:34:58;42.30;;;22.80;;
61356;SDS011;47227;46.752;23.576;2022-12-18T03:37:32;44.70;;;22.00;;
61356;SDS011;47227;46.752;23.576;2022-12-18T03:40:01;42.60;;;21.40;;
61356;SDS011;47227;46.752;23.576;2022-12-18T03:45:22;44.50;;;22.20;;
61356;SDS011;47227;46.752;23.576;2022-12-18T03:48:04;44.90;;;23.50;;
61356;SDS011;47227;46.752;23.576;2022-12-18T03:50:45;45.00;;;23.50;;
61356;SDS011;47227;46.752;23.576;2022-12-18T03:53:22;46.80;;;23.40;;
61356;SDS011;47227;46.752;23.576;2022-12-18T03:56:12;48.90;;;25.40;;
61356;SDS011;47227;46.752;23.576;2022-12-18T03:58:43;49.30;;;25.30;;
61356;SDS011;47227;46.752;23.576;2022-12-18T04:01:17;45.90;;;23.80;;
61356;SDS011;47227;46.752;23.576;2022-12-18T04:03:48;49.50;;;25.60;;
61356;SDS011;47227;46.752;23.576;2022-12-18T04:06:18;45.70;;;24.30;;
61356;SDS011;47227;46.752;23.576;2022-12-18T04:08:47;52.00;;;25.40;;
61356;SDS011;47227;46.752;23.576;2022-12-18T04:11:17;45.60;;;23.80;;
61356;SDS011;47227;46.752;23.576;2022-12-18T04:13:45;48.50;;;22.90;;
61356;SDS011;47227;46.752;23.576;2022-12-18T04:16:20;48.60;;;23.50;;
61356;SDS011;47227;46.752;23.576;2022-12-18T04:18:51;41.70;;;20.30;;
61356;SDS011;47227;46.752;23.576;2022-12-18T04:21:19;42.60;;;20.70;;
61356;SDS011;47227;46.752;23.576;2022-12-18T04:23:48;42.30;;;20.80;;
61356;SDS011;47227;46.752;23.576;2022-12-18T04:26:18;37.70;;;19.60;;
61356;SDS011;47227;46.752;23.576;2022-12-18T04:28:56;41.80;;;20.90;;
61356;SDS011;47227;46.752;23.576;2022-12-18T04:31:28;38.70;;;20.40;;
61356;SDS011;47227;46.752;23.576;2022-12-18T04:33:56;39.10;;;20.40;;
61356;SDS011;47227;46.752;23.576;2022-12-18T04:36:24;36.50;;;19.20;;
61356;SDS011;47227;46.752;23.576;2022-12-18T04:38:53;37.70;;;19.10;;
61356;SDS011;47227;46.752;23.576;2022-12-18T04:41:21;39.00;;;20.50;;
61356;SDS011;47227;46.752;23.576;2022-12-18T04:43:49;41.60;;;22.30;;
61356;SDS011;47227;46.752;23.576;2022-12-18T04:46:17;45.20;;;24.10;;
61356;SDS011;47227;46.752;23.576;2022-12-18T04:48:45;37.70;;;20.00;;
61356;SDS011;47227;46.752;23.576;2022-12-18T04:51:14;44.20;;;21.70;;
61356;SDS011;47227;46.752;23.576;2022-12-18T04:53:42;40.50;;;21.30;;
61356;SDS011;47227;46.752;23.576;2022-12-18T04:56:11;44.70;;;22.80;;
61356;SDS011;47227;46.752;23.576;2022-12-18T04:58:42;38.70;;;21.50;;
61356;SDS011;47227;46.752;23.576;2022-12-18T05:01:12;44.80;;;22.30;;
61356;SDS011;47227;46.752;23.576;2022-12-18T05:03:41;41.70;;;22.80;;
61356;SDS011;47227;46.752;23.576;2022-12-18T05:06:10;44.80;;;22.90;;
61356;SDS011;47227;46.752;23.576;2022-12-18T05:08:38;50.60;;;25.10;;
61356;SDS011;47227;46.752;23.576;2022-12-18T05:11:08;45.20;;;23.50;;
61356;SDS011;47227;46.752;23.576;2022-12-18T05:13:38;44.90;;;23.30;;
61356;SDS011;47227;46.752;23.576;2022-12-18T05:16:07;45.40;;;23.50;;
61356;SDS011;47227;46.752;23.576;2022-12-18T05:18:36;41.30;;;23.40;;
61356;SDS011;47227;46.752;23.576;2022-12-18T05:21:04;49.30;;;24.60;;
61356;SDS011;47227;46.752;23.576;2022-12-18T05:23:32;47.60;;;24.50;;
61356;SDS011;47227;46.752;23.576;2022-12-18T05:26:03;50.70;;;23.70;;
61356;SDS011;47227;46.752;23.576;2022-12-18T05:28:34;48.50;;;23.00;;
61356;SDS011;47227;46.752;23.576;2022-12-18T05:31:03;44.20;;;21.20;;
61356;SDS011;47227;46.752;23.576;2022-12-18T05:33:33;42.40;;;20.80;;
61356;SDS011;47227;46.752;23.576;2022-12-18T05:36:03;44.60;;;22.10;;
61356;SDS011;47227;46.752;23.576;2022-12-18T05:38:34;44.80;;;22.00;;
61356;SDS011;47227;46.752;23.576;2022-12-18T05:41:03;42.90;;;21.10;;
61356;SDS011;47227;46.752;23.576;2022-12-18T05:43:33;42.70;;;21.00;;
61356;SDS011;47227;46.752;23.576;2022-12-18T05:46:04;39.20;;;20.80;;
61356;SDS011;47227;46.752;23.576;2022-12-18T05:48:34;43.90;;;21.50;;
61356;SDS011;47227;46.752;23.576;2022-12-18T05:51:03;43.80;;;22.10;;
61356;SDS011;47227;46.752;23.576;2022-12-18T05:53:33;47.80;;;23.30;;
61356;SDS011;47227;46.752;23.576;2022-12-18T05:56:03;45.60;;;23.60;;
61356;SDS011;47227;46.752;23.576;2022-12-18T05:58:33;43.50;;;23.90;;
61356;SDS011;47227;46.752;23.576;2022-12-18T06:01:06;48.20;;;23.70;;
61356;SDS011;47227;46.752;23.576;2022-12-18T06:03:36;54.10;;;24.80;;
61356;SDS011;47227;46.752;23.576;2022-12-18T06:08:54;49.00;;;24.80;;
61356;SDS011;47227;46.752;23.576;2022-12-18T06:11:24;51.50;;;24.80;;
61356;SDS011;47227;46.752;23.576;2022-12-18T06:13:54;53.20;;;26.00;;
61356;SDS011;47227;46.752;23.576;2022-12-18T06:16:26;50.50;;;23.90;;
61356;SDS011;47227;46.752;23.576;2022-12-18T06:18:56;51.30;;;26.40;;
61356;SDS011;47227;46.752;23.576;2022-12-18T06:21:26;53.60;;;24.50;;
61356;SDS011;47227;46.752;23.576;2022-12-18T06:23:55;51.90;;;24.20;;
61356;SDS011;47227;46.752;23.576;2022-12-18T06:26:23;49.60;;;23.70;;
61356;SDS011;47227;46.752;23.576;2022-12-18T06:28:55;51.00;;;23.20;;
61356;SDS011;47227;46.752;23.576;2022-12-18T06:31:23;52.80;;;25.70;;
61356;SDS011;47227;46.752;23.576;2022-12-18T06:33:51;54.70;;;26.50;;
61356;SDS011;47227;46.752;23.576;2022-12-18T06:36:19;53.70;;;25.00;;
61356;SDS011;47227;46.752;23.576;2022-12-18T06:38:48;50.70;;;23.70;;
61356;SDS011;47227;46.752;23.576;2022-12-18T06:41:17;49.90;;;22.80;;
61356;SDS011;47227;46.752;23.576;2022-12-18T06:43:47;47.60;;;24.10;;
61356;SDS011;47227;46.752;23.576;2022-12-18T06:46:15;52.70;;;25.40;;
61356;SDS011;47227;46.752;23.576;2022-12-18T06:48:46;46.90;;;23.70;;
61356;SDS011;47227;46.752;23.576;2022-12-18T06:51:17;51.60;;;25.80;;
61356;SDS011;47227;46.752;23.576;2022-12-18T06:53:48;48.60;;;25.20;;
61356;SDS011;47227;46.752;23.576;2022-12-18T06:56:16;49.80;;;24.90;;
61356;SDS011;47227;46.752;23.576;2022-12-18T06:58:44;52.90;;;26.10;;
61356;SDS011;47227;46.752;23.576;2022-12-18T07:01:12;52.40;;;26.40;;
61356;SDS011;47227;46.752;23.576;2022-12-18T07:03:41;50.80;;;25.90;;
61356;SDS011;47227;46.752;23.576;2022-12-18T07:06:12;52.50;;;26.40;;
61356;SDS011;47227;46.752;23.576;2022-12-18T07:08:43;52.80;;;25.30;;
61356;SDS011;47227;46.752;23.576;2022-12-18T07:11:11;57.60;;;26.20;;
61356;SDS011;47227;46.752;23.576;2022-12-18T07:13:40;53.80;;;25.90;;
61356;SDS011;47227;46.752;23.576;2022-12-18T07:16:09;50.40;;;24.00;;
61356;SDS011;47227;46.752;23.576;2022-12-18T07:18:51;49.30;;;23.20;;
61356;SDS011;47227;46.752;23.576;2022-12-18T07:21:19;47.00;;;21.90;;
61356;SDS011;47227;46.752;23.576;2022-12-18T07:23:48;40.30;;;19.60;;
61356;SDS011;47227;46.752;23.576;2022-12-18T07:26:17;37.40;;;18.80;;
61356;SDS011;47227;46.752;23.576;2022-12-18T07:28:48;44.30;;;20.10;;
61356;SDS011;47227;46.752;23.576;2022-12-18T07:31:17;45.90;;;22.10;;
61356;SDS011;47227;46.752;23.576;2022-12-18T07:33:48;54.60;;;22.40;;
61356;SDS011;47227;46.752;23.576;2022-12-18T07:36:18;41.80;;;20.40;;
61356;SDS011;47227;46.752;23.576;2022-12-18T07:38:47;45.40;;;20.20;;
61356;SDS011;47227;46.752;23.576;2022-12-18T07:41:15;39.60;;;19.00;;
61356;SDS011;47227;46.752;23.576;2022-12-18T07:43:44;34.80;;;17.50;;
61356;SDS011;47227;46.752;23.576;2022-12-18T07:46:12;32.80;;;17.40;;
61356;SDS011;47227;46.752;23.576;2022-12-18T07:48:42;41.40;;;18.20;;
61356;SDS011;47227;46.752;23.576;2022-12-18T07:51:16;39.40;;;18.90;;
61356;SDS011;47227;46.752;23.576;2022-12-18T07:53:45;33.60;;;18.30;;
61356;SDS011;47227;46.752;23.576;2022-12-18T07:56:19;36.20;;;18.20;;
61356;SDS011;47227;46.752;23.576;2022-12-18T08:01:23;31.20;;;15.30;;
61356;SDS011;47227;46.752;23.576;2022-12-18T08:03:51;29.20;;;14.60;;
61356;SDS011;47227;46.752;23.576;2022-12-18T08:06:19;32.20;;;15.30;;
61356;SDS011;47227;46.752;23.576;2022-12-18T08:08:50;35.70;;;15.60;;
61356;SDS011;47227;46.752;23.576;2022-12-18T08:11:19;31.30;;;15.80;;
61356;SDS011;47227;46.752;23.576;2022-12-18T08:13:48;29.70;;;15.80;;
61356;SDS011;47227;46.752;23.576;2022-12-18T08:16:17;31.10;;;16.00;;
61356;SDS011;47227;46.752;23.576;2022-12-18T08:18:47;37.80;;;17.70;;
61356;SDS011;47227;46.752;23.576;2022-12-18T08:21:17;27.80;;;15.80;;
61356;SDS011;47227;46.752;23.576;2022-12-18T08:23:50;32.10;;;16.30;;
61356;SDS011;47227;46.752;23.576;2022-12-18T08:26:20;32.90;;;16.90;;
61356;SDS011;47227;46.752;23.576;2022-12-18T08:28:49;34.20;;;17.50;;
61356;SDS011;47227;46.752;23.576;2022-12-18T08:31:18;38.30;;;19.00;;
61356;SDS011;47227;46.752;23.576;2022-12-18T08:33:49;39.30;;;20.70;;
61356;SDS011;47227;46.752;23.576;2022-12-18T08:36:17;38.40;;;19.70;;
61356;SDS011;47227;46.752;23.576;2022-12-18T08:38:46;35.90;;;19.70;;
61356;SDS011;47227;46.752;23.576;2022-12-18T08:41:15;36.90;;;19.40;;
61356;SDS011;47227;46.752;23.576;2022-12-18T08:43:44;37.70;;;20.50;;
61356;SDS011;47227;46.752;23.576;2022-12-18T08:46:32;35.90;;;18.40;;
61356;SDS011;47227;46.752;23.576;2022-12-18T08:49:03;33.10;;;18.20;;
61356;SDS011;47227;46.752;23.576;2022-12-18T08:51:31;32.50;;;18.30;;
61356;SDS011;47227;46.752;23.576;2022-12-18T08:54:00;38.20;;;18.70;;
61356;SDS011;47227;46.752;23.576;2022-12-18T08:56:29;34.00;;;17.90;;
61356;SDS011;47227;46.752;23.576;2022-12-18T08:58:57;31.80;;;17.10;;
61356;SDS011;47227;46.752;23.576;2022-12-18T09:01:25;31.20;;;16.80;;
61356;SDS011;47227;46.752;23.576;2022-12-18T09:03:53;35.00;;;18.70;;
61356;SDS011;47227;46.752;23.576;2022-12-18T09:06:21;31.30;;;15.30;;
61356;SDS011;47227;46.752;23.576;2022-12-18T09:08:56;29.80;;;15.10;;
61356;SDS011;47227;46.752;23.576;2022-12-18T09:11:25;27.40;;;14.90;;
61356;SDS011;47227;46.752;23.576;2022-12-18T09:13:55;25.40;;;13.70;;
61356;SDS011;47227;46.752;23.576;2022-12-18T09:16:24;24.50;;;13.70;;
61356;SDS011;47227;46.752;23.576;2022-12-18T09:18:58;27.00;;;14.10;;
61356;SDS011;47227;46.752;23.576;2022-12-18T09:21:28;23.20;;;12.90;;
61356;SDS011;47227;46.752;23.576;2022-12-18T09:24:12;28.80;;;14.40;;
61356;SDS011;47227;46.752;23.576;2022-12-18T09:26:41;26.00;;;14.10;;
61356;SDS011;47227;46.752;23.576;2022-12-18T09:29:15;25.40;;;13.70;;
61356;SDS011;47227;46.752;23.576;2022-12-18T09:31:45;27.30;;;14.30;;
61356;SDS011;47227;46.752;23.576;2022-12-18T09:34:14;23.10;;;13.50;;
61356;SDS011;47227;46.752;23.576;2022-12-18T09:36:42;29.00;;;15.50;;
61356;SDS011;47227;46.752;23.576;2022-12-18T09:39:10;28.50;;;15.80;;
61356;SDS011;47227;46.752;23.576;2022-12-18T09:41:45;32.60;;;16.20;;
61356;SDS011;47227;46.752;23.576;2022-12-18T09:44:22;30.50;;;15.80;;
61356;SDS011;47227;46.752;23.576;2022-12-18T09:46:57;26.00;;;14.60;;
61356;SDS011;47227;46.752;23.576;2022-12-18T09:49:35;27.50;;;15.20;;
61356;SDS011;47227;46.752;23.576;2022-12-18T09:52:09;26.00;;;14.70;;
61356;SDS011;47227;46.752;23.576;2022-12-18T09:54:42;25.80;;;13.10;;
61356;SDS011;47227;46.752;23.576;2022-12-18T09:57:17;28.00;;;13.90;;
61356;SDS011;47227;46.752;23.576;2022-12-18T09:59:50;22.70;;;12.40;;
61356;SDS011;47227;46.752;23.576;2022-12-18T10:02:23;20.60;;;10.80;;
61356;SDS011;47227;46.752;23.576;2022-12-18T10:05:02;28.60;;;14.20;;
61356;SDS011;47227;46.752;23.576;2022-12-18T10:10:32;23.60;;;13.00;;
61356;SDS011;47227;46.752;23.576;2022-12-18T10:13:23;24.70;;;12.80;;
61356;SDS011;47227;46.752;23.576;2022-12-18T10:16:09;24.50;;;13.30;;
61356;SDS011;47227;46.752;23.576;2022-12-18T10:21:48;27.80;;;14.50;;
61356;SDS011;47227;46.752;23.576;2022-12-18T10:24:28;22.90;;;11.90;;
61356;SDS011;47227;46.752;23.576;2022-12-18T10:27:18;18.30;;;10.30;;
61356;SDS011;47227;46.752;23.576;2022-12-18T10:29:50;17.50;;;10.50;;
61356;SDS011;47227;46.752;23.576;2022-12-18T10:32:20;19.30;;;10.20;;
61356;SDS011;47227;46.752;23.576;2022-12-18T10:34:53;17.20;;;10.60;;
61356;SDS011;47227;46.752;23.576;2022-12-18T10:37:28;17.90;;;9.80;;
61356;SDS011;47227;46.752;23.576;2022-12-18T10:45:39;18.10;;;10.40;;
61356;SDS011;47227;46.752;23.576;2022-12-18T10:50:50;24.80;;;13.10;;
61356;SDS011;47227;46.752;23.576;2022-12-18T10:53:39;17.50;;;11.20;;
61356;SDS011;47227;46.752;23.576;2022-12-18T10:56:10;20.60;;;10.50;;
61356;SDS011;47227;46.752;23.576;2022-12-18T10:58:38;19.00;;;10.60;;
61356;SDS011;47227;46.752;23.576;2022-12-18T11:01:10;20.30;;;11.10;;
61356;SDS011;47227;46.752;23.576;2022-12-18T11:03:46;15.70;;;8.90;;
61356;SDS011;47227;46.752;23.576;2022-12-18T11:06:29;15.60;;;8.60;;
61356;SDS011;47227;46.752;23.576;2022-12-18T11:08:58;14.30;;;8.60;;
61356;SDS011;47227;46.752;23.576;2022-12-18T11:11:32;12.00;;;8.20;;
61356;SDS011;47227;46.752;23.576;2022-12-18T11:14:05;14.40;;;8.50;;
61356;SDS011;47227;46.752;23.576;2022-12-18T11:16:46;16.80;;;10.50;;
61356;SDS011;47227;46.752;23.576;2022-12-18T11:19:37;14.70;;;8.00;;
61356;SDS011;47227;46.752;23.576;2022-12-18T11:22:23;18.00;;;9.90;;
61356;SDS011;47227;46.752;23.576;2022-12-18T11:24:56;15.10;;;9.60;;
61356;SDS011;47227;46.752;23.576;2022-12-18T11:30:33;20.70;;;10.30;;
61356;SDS011;47227;46.752;23.576;2022-12-18T11:33:10;15.60;;;9.20;;
61356;SDS011;47227;46.752;23.576;2022-12-18T11:35:59;16.00;;;9.30;;
61356;SDS011;47227;46.752;23.576;2022-12-18T11:38:32;15.70;;;9.00;;
61356;SDS011;47227;46.752;23.576;2022-12-18T11:41:04;14.10;;;8.70;;
61356;SDS011;47227;46.752;23.576;2022-12-18T11:43:52;14.60;;;9.30;;
61356;SDS011;47227;46.752;23.576;2022-12-18T11:46:30;13.20;;;8.30;;
61356;SDS011;47227;46.752;23.576;2022-12-18T11:49:06;16.80;;;8.50;;
61356;SDS011;47227;46.752;23.576;2022-12-18T11:51:42;15.10;;;8.30;;
61356;SDS011;47227;46.752;23.576;2022-12-18T11:54:16;14.30;;;8.70;;
61356;SDS011;47227;46.752;23.576;2022-12-18T11:56:47;14.40;;;8.70;;
61356;SDS011;47227;46.752;23.576;2022-12-18T11:59:27;14.90;;;8.40;;
61356;SDS011;47227;46.752;23.576;2022-12-18T12:05:06;16.20;;;9.10;;
61356;SDS011;47227;46.752;23.576;2022-12-18T12:07:48;18.50;;;9.00;;
61356;SDS011;47227;46.752;23.576;2022-12-18T12:10:28;13.50;;;8.60;;
61356;SDS011;47227;46.752;23.576;2022-12-18T12:16:23;12.30;;;7.10;;
61356;SDS011;47227;46.752;23.576;2022-12-18T12:19:06;12.00;;;7.30;;
61356;SDS011;47227;46.752;23.576;2022-12-18T12:21:51;13.00;;;7.10;;
61356;SDS011;47227;46.752;23.576;2022-12-18T12:24:49;13.70;;;7.10;;
61356;SDS011;47227;46.752;23.576;2022-12-18T12:27:46;12.80;;;6.90;;
61356;SDS011;47227;46.752;23.576;2022-12-18T12:30:24;14.00;;;7.20;;
61356;SDS011;47227;46.752;23.576;2022-12-18T12:33:12;11.30;;;6.70;;
61356;SDS011;47227;46.752;23.576;2022-12-18T12:35:55;13.90;;;7.70;;
61356;SDS011;47227;46.752;23.576;2022-12-18T12:38:46;15.60;;;8.50;;
61356;SDS011;47227;46.752;23.576;2022-12-18T12:41:20;14.30;;;8.50;;
61356;SDS011;47227;46.752;23.576;2022-12-18T12:44:06;14.90;;;7.90;;
61356;SDS011;47227;46.752;23.576;2022-12-18T12:46:40;14.40;;;7.80;;
61356;SDS011;47227;46.752;23.576;2022-12-18T12:49:12;15.00;;;8.10;;
61356;SDS011;47227;46.752;23.576;2022-12-18T12:51:43;17.40;;;8.70;;
61356;SDS011;47227;46.752;23.576;2022-12-18T12:54:16;12.70;;;7.60;;
61356;SDS011;47227;46.752;23.576;2022-12-18T12:56:49;17.10;;;8.60;;
61356;SDS011;47227;46.752;23.576;2022-12-18T12:59:29;14.60;;;8.60;;
61356;SDS011;47227;46.752;23.576;2022-12-18T13:02:14;17.40;;;8.60;;
61356;SDS011;47227;46.752;23.576;2022-12-18T13:04:56;15.80;;;8.80;;
61356;SDS011;47227;46.752;23.576;2022-12-18T13:07:35;14.40;;;8.20;;
61356;SDS011;47227;46.752;23.576;2022-12-18T13:10:23;24.90;;;9.70;;
61356;SDS011;47227;46.752;23.576;2022-12-18T13:12:56;19.10;;;9.80;;
61356;SDS011;47227;46.752;23.576;2022-12-18T13:15:37;20.00;;;10.20;;
61356;SDS011;47227;46.752;23.576;2022-12-18T13:18:13;15.70;;;8.40;;
61356;SDS011;47227;46.752;23.576;2022-12-18T13:20:50;12.20;;;7.20;;
61356;SDS011;47227;46.752;23.576;2022-12-18T13:23:32;13.90;;;7.90;;
61356;SDS011;47227;46.752;23.576;2022-12-18T13:28:57;12.20;;;7.60;;
61356;SDS011;47227;46.752;23.576;2022-12-18T13:34:27;19.50;;;9.50;;
61356;SDS011;47227;46.752;23.576;2022-12-18T13:39:58;16.00;;;8.90;;
61356;SDS011;47227;46.752;23.576;2022-12-18T13:45:35;21.20;;;10.20;;
61356;SDS011;47227;46.752;23.576;2022-12-18T13:50:52;20.10;;;9.70;;
61356;SDS011;47227;46.752;23.576;2022-12-18T13:53:26;17.90;;;10.00;;
61356;SDS011;47227;46.752;23.576;2022-12-18T13:55:58;18.10;;;10.80;;
61356;SDS011;47227;46.752;23.576;2022-12-18T13:58:26;21.30;;;11.70;;
61356;SDS011;47227;46.752;23.576;2022-12-18T14:00:54;22.30;;;11.80;;
61356;SDS011;47227;46.752;23.576;2022-12-18T14:03:24;24.10;;;13.00;;
61356;SDS011;47227;46.752;23.576;2022-12-18T14:05:56;27.00;;;14.00;;
61356;SDS011;47227;46.752;23.576;2022-12-18T14:08:32;25.10;;;14.70;;
61356;SDS011;47227;46.752;23.576;2022-12-18T14:11:05;33.80;;;15.00;;
61356;SDS011;47227;46.752;23.576;2022-12-18T14:13:37;31.10;;;14.80;;
61356;SDS011;47227;46.752;23.576;2022-12-18T14:16:11;30.30;;;15.80;;
61356;SDS011;47227;46.752;23.576;2022-12-18T14:18:44;27.40;;;14.70;;
61356;SDS011;47227;46.752;23.576;2022-12-18T14:21:33;27.10;;;15.20;;
61356;SDS011;47227;46.752;23.576;2022-12-18T14:24:05;31.60;;;16.20;;
61356;SDS011;47227;46.752;23.576;2022-12-18T14:26:41;33.30;;;16.50;;
61356;SDS011;47227;46.752;23.576;2022-12-18T14:34:44;36.60;;;16.70;;
61356;SDS011;47227;46.752;23.576;2022-12-18T14:37:16;33.30;;;15.90;;
61356;SDS011;47227;46.752;23.576;2022-12-18T14:39:55;41.20;;;17.90;;
61356;SDS011;47227;46.752;23.576;2022-12-18T14:42:26;37.90;;;16.90;;
61356;SDS011;47227;46.752;23.576;2022-12-18T14:45:31;36.80;;;16.10;;
61356;SDS011;47227;46.752;23.576;2022-12-18T14:48:18;39.60;;;15.40;;
61356;SDS011;47227;46.752;23.576;2022-12-18T14:51:00;35.50;;;14.90;;
61356;SDS011;47227;46.752;23.576;2022-12-18T14:56:23;32.50;;;14.80;;
61356;SDS011;47227;46.752;23.576;2022-12-18T14:58:54;31.50;;;14.10;;
61356;SDS011;47227;46.752;23.576;2022-12-18T15:01:28;34.00;;;15.10;;
61356;SDS011;47227;46.752;23.576;2022-12-18T15:04:00;32.50;;;14.00;;
61356;SDS011;47227;46.752;23.576;2022-12-18T15:06:34;38.10;;;15.80;;
61356;SDS011;47227;46.752;23.576;2022-12-18T15:09:20;32.50;;;14.00;;
61356;SDS011;47227;46.752;23.576;2022-12-18T15:11:54;35.50;;;15.10;;
61356;SDS011;47227;46.752;23.576;2022-12-18T15:14:33;31.70;;;15.00;;
61356;SDS011;47227;46.752;23.576;2022-12-18T15:17:15;37.00;;;15.80;;
61356;SDS011;47227;46.752;23.576;2022-12-18T15:19:48;36.40;;;15.50;;
61356;SDS011;47227;46.752;23.576;2022-12-18T15:22:21;35.30;;;16.30;;
61356;SDS011;47227;46.752;23.576;2022-12-18T15:25:01;39.70;;;18.00;;
61356;SDS011;47227;46.752;23.576;2022-12-18T15:27:33;37.90;;;16.70;;
61356;SDS011;47227;46.752;23.576;2022-12-18T15:33:05;38.90;;;19.00;;
61356;SDS011;47227;46.752;23.576;2022-12-18T15:35:58;41.60;;;17.60;;
61356;SDS011;47227;46.752;23.576;2022-12-18T15:38:27;41.20;;;17.50;;
61356;SDS011;47227;46.752;23.576;2022-12-18T15:40:55;43.00;;;17.50;;
61356;SDS011;47227;46.752;23.576;2022-12-18T15:43:23;41.20;;;17.80;;
61356;SDS011;47227;46.752;23.576;2022-12-18T15:48:48;44.20;;;18.80;;
61356;SDS011;47227;46.752;23.576;2022-12-18T15:51:26;49.90;;;20.80;;
61356;SDS011;47227;46.752;23.576;2022-12-18T15:53:59;47.00;;;20.00;;
61356;SDS011;47227;46.752;23.576;2022-12-18T15:56:31;43.20;;;19.50;;
61356;SDS011;47227;46.752;23.576;2022-12-18T15:59:18;40.70;;;18.70;;